Terminal Aerodrome Forecast
Issued by NWS

Home | Current Version | Previous Version | Text Only | Print | Product List | Glossary On
Versions: 1 2 3 4 5 6 7 8 9 10 11 12 13 14 15 16 17
519
FTAK31 PAJN 302320
TAFAGY
TAF
PAGY 302320Z 3100/3124 21016KT P6SM OVC050
     FM310500 21005KT P6SM SCT015 OVC050
     FM310900 VRB03KT P6SM BKN012 OVC040
     FM311800 22006KT P6SM SCT015 OVC045
     FM312200 21015KT P6SM BKN050
      AMD LTD TO CLD VIS AND WIND=

USA.gov is the U.S. government's official web portal to all federal, state and local government web resources and services.